Time;durP1;ratioP1;P1;durP2;ratioP2;P2;SDS_P1;SDS_P2;PMS_P1;PMS_P2;Temp;Humidity;BMP_temperature;BMP_pressure;BME280_temperature;BME280_humidity;BME280_pressure;Samples;Min_cycle;Max_cycle;Signal;HPM_P1;HPM_P2
2023/01/28 00:02:07;;;;;;;;;;;;;;;0.70;69.51;102403.66;107336;1257;124237;-85
2023/01/28 00:04:33;;;;;;;;;;;;;;;0.72;69.44;102407.13;107440;1254;62177;-87
2023/01/28 00:06:59;;;;;;;;;;;;;;;0.71;69.18;102400.63;107491;1254;124765;-85
2023/01/28 00:09:28;;;;;;;;;;;;;;;0.73;69.35;102397.54;107392;1254;60572;-84
2023/01/28 00:11:54;;;;;;;;;;;;;;;0.74;69.40;102397.69;107498;1256;60541;-80
2023/01/28 00:14:20;;;;;;;;;;;;;;;0.75;69.23;102407.22;107567;1257;125165;-85
2023/01/28 00:16:46;;;;;;;;;;;;;;;0.75;69.11;102406.60;107669;1254;60280;-85
2023/01/28 00:19:13;;;;;;;;;;;;;;;0.78;69.21;102403.04;107715;1254;124323;-85
2023/01/28 00:21:39;;;;;;;;;;;;;;;0.79;69.12;102401.93;107604;1256;59583;-86
2023/01/28 00:24:08;;;;;;;;;;;;;;;0.76;68.98;102400.80;107344;1254;124402;-85
2023/01/28 00:26:34;;;;;;;;;;;;;;;0.73;68.83;102403.60;107469;1256;60704;-85
2023/01/28 00:29:00;;;;;;;;;;;;;;;0.71;68.72;102402.59;107246;1254;60844;-85
2023/01/28 00:31:27;;;;;;;;;;;;;;;0.73;68.99;102402.61;107303;1254;124243;-85
2023/01/28 00:33:54;;;;;;;;;;;;;;;0.77;68.94;102402.25;107162;1254;60602;-86
2023/01/28 00:36:20;;;;;;;;;;;;;;;0.80;68.77;102400.39;107184;1259;123724;-85
2023/01/28 00:38:51;;;;;;;;;;;;;;;0.80;68.96;102397.84;107257;1254;60043;-85
2023/01/28 00:41:22;;;;;;;;;;;;;;;0.81;68.81;102394.66;107331;1256;72488;-85
2023/01/28 00:43:49;;;;;;;;;;;;;;;0.78;68.72;102393.34;107152;1254;124328;-80
2023/01/28 00:46:15;;;;;;;;;;;;;;;0.73;68.77;102399.48;107459;1254;58721;-85
2023/01/28 00:49:15;;;;;;;;;;;;;;;0.69;68.69;102399.95;107457;1254;123672;-85
2023/01/28 00:51:41;;;;;;;;;;;;;;;0.69;68.47;102398.95;107535;1257;60370;-85
2023/01/28 00:54:08;;;;;;;;;;;;;;;0.68;68.61;102399.36;107341;1254;123790;-87
2023/01/28 00:56:35;;;;;;;;;;;;;;;0.68;68.64;102398.01;107488;1254;65941;-86
2023/01/28 00:59:02;;;;;;;;;;;;;;;0.67;68.54;102395.98;107637;1255;73099;-86
2023/01/28 01:01:28;;;;;;;;;;;;;;;0.63;68.52;102393.53;107521;1256;124062;-85
2023/01/28 01:04:02;;;;;;;;;;;;;;;0.61;68.54;102394.69;107440;1254;60556;-86
2023/01/28 01:06:29;;;;;;;;;;;;;;;0.59;68.62;102391.64;107425;1256;144556;-86
2023/01/28 01:08:55;;;;;;;;;;;;;;;0.60;68.74;102388.05;107282;1255;68534;-86
2023/01/28 01:11:23;;;;;;;;;;;;;;;0.63;68.89;102387.80;107419;1259;60591;-86
2023/01/28 01:13:51;;;;;;;;;;;;;;;0.64;68.58;102388.77;107282;1254;123684;-86
2023/01/28 01:16:22;;;;;;;;;;;;;;;0.62;68.66;102385.67;107232;1254;60483;-86
2023/01/28 01:18:51;;;;;;;;;;;;;;;0.58;68.79;102383.76;107280;1256;123549;-84
2023/01/28 01:21:18;;;;;;;;;;;;;;;0.53;68.67;102386.27;107329;1254;65806;-84
2023/01/28 01:23:45;;;;;;;;;;;;;;;0.52;68.73;102385.08;107457;1257;71045;-85
2023/01/28 01:26:11;;;;;;;;;;;;;;;0.53;68.97;102387.60;107526;1257;124166;-84
2023/01/28 01:28:38;;;;;;;;;;;;;;;0.52;68.82;102389.46;107320;1257;60518;-84
2023/01/28 01:31:06;;;;;;;;;;;;;;;0.51;68.78;102394.21;107425;1256;123606;-83
2023/01/28 01:33:33;;;;;;;;;;;;;;;0.48;68.65;102392.70;107166;1257;67672;-84
2023/01/28 01:36:01;;;;;;;;;;;;;;;0.43;68.56;102395.88;107288;1256;73042;-85
2023/01/28 01:38:29;;;;;;;;;;;;;;;0.44;68.58;102395.55;107481;1256;123401;-84
2023/01/28 01:40:57;;;;;;;;;;;;;;;0.46;68.53;102397.23;107489;1253;60427;-85
2023/01/28 01:43:24;;;;;;;;;;;;;;;0.48;68.59;102399.08;107440;1255;123622;-86
2023/01/28 01:45:57;;;;;;;;;;;;;;;0.49;68.74;102394.23;108017;1254;58710;-79
2023/01/28 01:48:29;;;;;;;;;;;;;;;0.53;68.72;102392.09;107565;1254;124366;-80
2023/01/28 01:50:58;;;;;;;;;;;;;;;0.52;68.62;102390.12;107306;1256;60476;-86
2023/01/28 01:53:24;;;;;;;;;;;;;;;0.49;68.66;102386.58;107220;1260;60540;-84
2023/01/28 01:55:51;;;;;;;;;;;;;;;0.49;68.59;102382.09;107120;1259;123592;-84
2023/01/28 01:58:18;;;;;;;;;;;;;;;0.48;68.79;102381.99;107321;1257;65815;-79
2023/01/28 02:00:45;;;;;;;;;;;;;;;0.50;68.67;102385.61;107826;1254;124867;-79
2023/01/28 02:03:11;;;;;;;;;;;;;;;0.49;68.52;102389.48;108108;1257;58600;-79
2023/01/28 02:05:37;;;;;;;;;;;;;;;0.49;68.45;102387.95;108109;1254;60341;-80
2023/01/28 02:08:20;;;;;;;;;;;;;;;0.49;68.37;102383.58;107710;1254;124147;-79
2023/01/28 02:10:52;;;;;;;;;;;;;;;0.48;68.52;102382.48;108885;1254;67759;-79
2023/01/28 02:13:18;;;;;;;;;;;;;;;0.45;68.51;102389.83;108930;1256;124259;-80
2023/01/28 02:15:44;;;;;;;;;;;;;;;0.47;68.55;102387.05;108925;1254;58553;-79
2023/01/28 02:18:11;;;;;;;;;;;;;;;0.50;68.72;102389.23;108834;1259;124171;-80
2023/01/28 02:20:37;;;;;;;;;;;;;;;0.49;68.64;102384.71;107729;1256;59291;-79
2023/01/28 02:23:22;;;;;;;;;;;;;;;0.47;68.67;102384.27;107267;1254;59292;-86
2023/01/28 02:26:08;;;;;;;;;;;;;;;0.49;68.75;102389.86;107272;1255;123756;-86
2023/01/28 02:28:41;;;;;;;;;;;;;;;0.52;68.80;102387.18;107515;1254;60457;-85
2023/01/28 02:31:27;;;;;;;;;;;;;;;0.55;68.69;102390.09;107327;1257;124059;-85
2023/01/28 02:33:59;;;;;;;;;;;;;;;0.54;68.55;102385.13;107518;1256;72263;-85
2023/01/28 02:36:35;;;;;;;;;;;;;;;0.49;68.67;102382.48;108087;1254;124568;-84
2023/01/28 02:39:02;;;;;;;;;;;;;;;0.45;68.76;102378.38;107614;1254;71492;-86
2023/01/28 02:41:30;;;;;;;;;;;;;;;0.42;68.67;102375.02;107219;1254;59237;-86
2023/01/28 02:43:57;;;;;;;;;;;;;;;0.42;68.77;102372.93;107142;1256;124236;-85
2023/01/28 02:49:10;;;;;;;;;;;;;;;0.45;68.85;102369.59;107598;1256;123719;-80
2023/01/28 02:51:56;;;;;;;;;;;;;;;0.47;68.80;102372.91;107775;1254;73170;-80
2023/01/28 02:54:27;;;;;;;;;;;;;;;0.48;68.92;102371.95;107665;1254;124231;-80
2023/01/28 02:57:12;;;;;;;;;;;;;;;0.47;68.81;102371.83;107435;1254;59938;-80
2023/01/28 02:59:41;;;;;;;;;;;;;;;0.42;68.44;102372.98;107697;1254;75121;-80
2023/01/28 03:02:13;;;;;;;;;;;;;;;0.37;68.66;102375.48;107478;1260;125818;-80
2023/01/28 03:04:44;;;;;;;;;;;;;;;0.37;68.87;102378.19;107554;1256;72630;-85
2023/01/28 03:07:11;;;;;;;;;;;;;;;0.40;68.60;102374.34;107801;1256;124313;-80
2023/01/28 03:09:38;;;;;;;;;;;;;;;0.44;68.59;102377.10;107907;1256;59927;-79
2023/01/28 03:37:27;;;;;;;;;;;;;;;0.60;68.25;102356.60;109010;1255;125131;-80
2023/01/28 03:39:56;;;;;;;;;;;;;;;0.61;68.51;102357.23;107889;1256;72064;-80
2023/01/28 03:42:23;;;;;;;;;;;;;;;0.61;68.43;102359.70;108866;1257;125059;-80
2023/01/28 03:44:52;;;;;;;;;;;;;;;0.64;68.64;102358.77;107729;1259;60492;-80
2023/01/28 03:47:19;;;;;;;;;;;;;;;0.69;68.66;102358.27;107875;1256;60487;-80
2023/01/28 03:49:50;;;;;;;;;;;;;;;0.72;68.74;102358.23;107528;1259;123529;-80
2023/01/28 03:52:17;;;;;;;;;;;;;;;0.73;68.55;102353.56;107453;1254;73924;-80
2023/01/28 03:54:47;;;;;;;;;;;;;;;0.71;68.32;102350.36;107703;1253;124004;-80
2023/01/28 03:57:16;;;;;;;;;;;;;;;0.70;68.56;102353.92;108925;1256;71780;-80
2023/01/28 03:59:43;;;;;;;;;;;;;;;0.71;68.68;102355.59;108311;1258;59164;-85
2023/01/28 04:02:12;;;;;;;;;;;;;;;0.76;68.68;102353.91;107743;1255;124060;-80
2023/01/28 04:04:38;;;;;;;;;;;;;;;0.78;68.52;102351.54;108255;1257;72573;-87
2023/01/28 04:07:14;;;;;;;;;;;;;;;0.79;68.64;102352.31;107555;1256;123565;-86
2023/01/28 04:09:40;;;;;;;;;;;;;;;0.78;68.58;102351.76;108797;1256;71489;-85
2023/01/28 04:12:06;;;;;;;;;;;;;;;0.78;68.79;102353.61;107534;1256;59395;-86
2023/01/28 04:14:33;;;;;;;;;;;;;;;0.80;68.57;102355.48;107765;1254;122774;-85
2023/01/28 04:16:59;;;;;;;;;;;;;;;0.80;68.46;102355.36;109164;1257;58774;-80
2023/01/28 04:19:25;;;;;;;;;;;;;;;0.80;68.58;102357.38;108961;1254;123664;-80
2023/01/28 04:21:55;;;;;;;;;;;;;;;0.80;68.42;102356.52;107715;1256;59447;-80
2023/01/28 04:24:22;;;;;;;;;;;;;;;0.80;68.50;102351.67;107454;1258;127605;-80
2023/01/28 04:26:48;;;;;;;;;;;;;;;0.79;68.55;102357.50;107626;1261;59765;-80
2023/01/28 04:29:14;;;;;;;;;;;;;;;0.77;68.54;102353.72;108903;1254;59121;-80
2023/01/28 04:31:40;;;;;;;;;;;;;;;0.74;68.30;102350.27;108810;1254;123882;-80
2023/01/28 04:34:08;;;;;;;;;;;;;;;0.70;68.19;102354.96;109011;1257;59390;-80
2023/01/28 04:36:34;;;;;;;;;;;;;;;0.68;68.48;102353.76;108239;1257;124073;-87
2023/01/28 04:39:00;;;;;;;;;;;;;;;0.68;68.57;102357.52;107381;1256;61277;-86
2023/01/28 04:41:28;;;;;;;;;;;;;;;0.68;68.52;102360.84;107295;1257;61258;-86
2023/01/28 04:43:55;;;;;;;;;;;;;;;0.65;68.53;102363.15;107372;1257;124228;-87
2023/01/28 04:46:21;;;;;;;;;;;;;;;0.65;68.49;102362.78;107764;1256;72704;-80
2023/01/28 04:48:48;;;;;;;;;;;;;;;0.64;68.60;102362.04;107735;1257;124546;-79
2023/01/28 04:51:14;;;;;;;;;;;;;;;0.62;68.61;102356.59;108037;1257;61392;-79
2023/01/28 04:53:40;;;;;;;;;;;;;;;0.58;68.90;102355.63;107885;1256;60237;-79
2023/01/28 04:56:07;;;;;;;;;;;;;;;0.60;68.98;102354.23;107998;1256;124174;-79
2023/01/28 04:58:33;;;;;;;;;;;;;;;0.63;68.87;102354.97;109013;1253;59496;-80
2023/01/28 05:00:59;;;;;;;;;;;;;;;0.64;68.73;102354.71;109031;1254;126666;-79
2023/01/28 05:03:25;;;;;;;;;;;;;;;0.64;68.85;102353.86;108881;1256;59445;-79
2023/01/28 05:05:52;;;;;;;;;;;;;;;0.63;68.75;102358.77;108792;1255;59319;-79
2023/01/28 05:08:18;;;;;;;;;;;;;;;0.63;68.85;102359.66;108647;1255;124759;-79
2023/01/28 05:10:44;;;;;;;;;;;;;;;0.63;68.92;102359.64;108851;1256;59285;-79
2023/01/28 05:13:42;;;;;;;;;;;;;;;0.60;68.87;102366.00;107351;1256;124272;-86
2023/01/28 05:16:14;;;;;;;;;;;;;;;0.56;68.93;102370.45;107358;1259;59961;-86
2023/01/28 05:19:13;;;;;;;;;;;;;;;0.54;68.95;102371.13;107218;1257;123948;-87
2023/01/28 05:21:39;;;;;;;;;;;;;;;0.55;69.16;102367.23;107532;1257;67042;-87
2023/01/28 05:24:08;;;;;;;;;;;;;;;0.54;69.02;102368.70;107243;1257;60662;-87
2023/01/28 05:26:34;;;;;;;;;;;;;;;0.53;69.25;102369.67;107246;1256;61278;-87
2023/01/28 05:29:01;;;;;;;;;;;;;;;0.53;69.40;102375.90;107173;1259;61269;-79
2023/01/28 05:31:27;;;;;;;;;;;;;;;0.55;69.39;102375.52;107536;1256;124673;-80
2023/01/28 05:33:53;;;;;;;;;;;;;;;0.57;69.51;102376.23;107873;1256;61282;-80
2023/01/28 05:36:19;;;;;;;;;;;;;;;0.57;69.57;102377.45;107509;1256;124010;-80
2023/01/28 05:38:46;;;;;;;;;;;;;;;0.56;69.59;102376.36;108667;1258;59091;-80
2023/01/28 05:41:12;;;;;;;;;;;;;;;0.56;69.50;102371.66;108903;1256;59182;-79
2023/01/28 05:43:38;;;;;;;;;;;;;;;0.55;69.76;102372.06;108825;1260;123956;-81
2023/01/28 05:46:05;;;;;;;;;;;;;;;0.54;69.75;102371.69;108586;1256;61683;-81
2023/01/28 05:48:31;;;;;;;;;;;;;;;0.55;69.72;102371.95;108042;1260;123999;-81
2023/01/28 05:50:57;;;;;;;;;;;;;;;0.53;69.64;102371.76;107327;1257;61542;-85
2023/01/28 05:53:28;;;;;;;;;;;;;;;0.53;69.86;102372.05;107526;1259;61407;-85
2023/01/28 05:55:54;;;;;;;;;;;;;;;0.51;69.82;102371.73;107713;1257;124079;-84
2023/01/28 05:58:20;;;;;;;;;;;;;;;0.46;69.78;102374.73;107433;1257;59808;-85
2023/01/28 06:00:48;;;;;;;;;;;;;;;0.45;69.91;102374.81;106964;1261;124726;-85
2023/01/28 06:03:14;;;;;;;;;;;;;;;0.47;70.07;102372.32;107344;1259;61302;-78
2023/01/28 06:05:40;;;;;;;;;;;;;;;0.48;70.19;102374.25;107621;1256;61366;-80
2023/01/28 06:08:07;;;;;;;;;;;;;;;0.51;70.17;102372.93;107486;1254;124485;-79
2023/01/28 06:10:33;;;;;;;;;;;;;;;0.56;70.44;102367.89;107678;1255;61298;-79
2023/01/28 06:13:01;;;;;;;;;;;;;;;0.61;70.16;102359.64;107610;1257;124498;-79
2023/01/28 06:15:27;;;;;;;;;;;;;;;0.64;70.15;102362.86;107497;1255;59772;-79
2023/01/28 06:17:53;;;;;;;;;;;;;;;0.67;70.28;102363.11;107850;1259;59634;-79
2023/01/28 06:20:19;;;;;;;;;;;;;;;0.64;70.23;102362.21;108523;1256;124386;-84
2023/01/28 06:22:46;;;;;;;;;;;;;;;0.62;69.97;102363.20;107679;1259;61216;-84
2023/01/28 06:25:12;;;;;;;;;;;;;;;0.62;69.96;102362.45;107848;1255;124864;-84
2023/01/28 06:27:39;;;;;;;;;;;;;;;0.62;70.08;102362.54;107632;1257;59778;-84
2023/01/28 06:30:05;;;;;;;;;;;;;;;0.65;70.16;102364.21;107357;1257;59809;-84
2023/01/28 06:32:32;;;;;;;;;;;;;;;0.67;70.09;102366.13;107173;1262;124506;-83
2023/01/28 06:34:59;;;;;;;;;;;;;;;0.65;70.00;102362.58;107625;1259;67080;-84
2023/01/28 06:37:25;;;;;;;;;;;;;;;0.64;70.09;102358.57;107375;1257;125232;-84
2023/01/28 06:39:51;;;;;;;;;;;;;;;0.65;70.13;102354.86;107992;1257;59856;-84
2023/01/28 06:42:19;;;;;;;;;;;;;;;0.69;70.19;102354.91;107406;1256;124609;-84
2023/01/28 06:44:46;;;;;;;;;;;;;;;0.74;70.13;102359.29;107730;1257;75214;-85
2023/01/28 06:47:14;;;;;;;;;;;;;;;0.75;70.27;102365.98;107841;1257;64632;-85
2023/01/28 06:49:40;;;;;;;;;;;;;;;0.80;70.00;102368.66;107826;1254;124508;-80
2023/01/28 06:52:06;;;;;;;;;;;;;;;0.85;70.35;102369.12;107494;1256;61446;-80
2023/01/28 06:54:33;;;;;;;;;;;;;;;0.84;69.99;102372.28;107455;1257;124546;-79
2023/01/28 06:57:03;;;;;;;;;;;;;;;0.84;70.23;102372.49;107664;1257;59653;-80
2023/01/28 06:59:30;;;;;;;;;;;;;;;0.87;70.21;102370.17;108485;1259;65156;-79
2023/01/28 07:01:56;;;;;;;;;;;;;;;0.88;69.98;102369.33;107586;1254;123837;-82
2023/01/28 07:04:22;;;;;;;;;;;;;;;0.83;69.94;102370.23;108654;1254;61234;-85
2023/01/28 07:06:49;;;;;;;;;;;;;;;0.78;69.61;102375.57;107207;1257;124066;-87
2023/01/28 07:09:15;;;;;;;;;;;;;;;0.77;70.01;102374.63;107318;1262;61388;-86
2023/01/28 07:11:46;;;;;;;;;;;;;;;0.80;69.91;102372.60;107307;1256;61313;-87
2023/01/28 07:14:12;;;;;;;;;;;;;;;0.84;69.87;102375.36;107235;1256;123767;-86
2023/01/28 07:16:41;;;;;;;;;;;;;;;0.86;69.94;102382.52;107478;1256;60579;-87
2023/01/28 07:19:07;;;;;;;;;;;;;;;0.88;69.82;102383.40;107336;1254;123739;-91
2023/01/28 07:21:33;;;;;;;;;;;;;;;0.89;69.84;102378.42;107321;1254;61183;-86
2023/01/28 07:24:00;;;;;;;;;;;;;;;0.86;69.59;102380.92;107358;1257;61237;-84
2023/01/28 07:26:26;;;;;;;;;;;;;;;0.81;69.66;102378.95;107278;1260;124237;-82
2023/01/28 07:28:53;;;;;;;;;;;;;;;0.81;69.91;102381.83;107234;1261;61285;-84
2023/01/28 07:31:20;;;;;;;;;;;;;;;0.80;69.79;102380.73;106976;1262;123698;-82
2023/01/28 07:33:46;;;;;;;;;;;;;;;0.81;69.93;102382.34;107332;1259;75235;-89
2023/01/28 07:36:14;;;;;;;;;;;;;;;0.83;69.71;102378.91;107254;1257;124045;-82
2023/01/28 07:38:40;;;;;;;;;;;;;;;0.84;69.78;102376.77;107734;1255;72999;-85
2023/01/28 07:41:06;;;;;;;;;;;;;;;0.86;69.85;102380.89;107624;1259;61093;-85
2023/01/28 07:43:33;;;;;;;;;;;;;;;0.85;69.77;102387.06;107345;1255;124543;-81
2023/01/28 07:46:01;;;;;;;;;;;;;;;0.83;69.78;102391.05;107441;1259;61389;-82
2023/01/28 07:48:29;;;;;;;;;;;;;;;0.84;69.77;102389.70;107221;1256;124755;-84
2023/01/28 07:50:59;;;;;;;;;;;;;;;0.85;69.88;102396.27;107577;1254;72543;-83
2023/01/28 07:53:25;;;;;;;;;;;;;;;0.88;69.68;102397.35;107840;1259;61075;-81
2023/01/28 07:56:00;;;;;;;;;;;;;;;0.92;69.82;102394.73;107317;1259;124048;-86
2023/01/28 07:58:26;;;;;;;;;;;;;;;0.95;69.85;102394.34;107433;1257;74540;-82
2023/01/28 08:00:55;;;;;;;;;;;;;;;0.96;69.59;102387.92;107318;1257;123951;-84
2023/01/28 08:03:22;;;;;;;;;;;;;;;0.98;69.67;102388.77;107392;1259;72915;-85
2023/01/28 08:05:52;;;;;;;;;;;;;;;1.01;69.49;102389.69;107495;1256;61174;-87
2023/01/28 08:08:18;;;;;;;;;;;;;;;1.06;69.63;102390.00;107421;1254;123940;-87
2023/01/28 08:10:45;;;;;;;;;;;;;;;1.11;69.66;102385.44;107447;1257;61270;-80
2023/01/28 08:13:12;;;;;;;;;;;;;;;1.14;69.47;102379.45;107146;1259;124114;-83
2023/01/28 08:15:39;;;;;;;;;;;;;;;1.15;69.65;102376.62;107536;1262;72713;-81
2023/01/28 08:18:05;;;;;;;;;;;;;;;1.13;69.45;102383.34;107978;1259;59731;-81
2023/01/28 08:20:34;;;;;;;;;;;;;;;1.11;69.42;102383.33;107429;1256;123868;-80
2023/01/28 08:23:06;;;;;;;;;;;;;;;1.09;69.45;102377.58;107365;1259;73286;-81
2023/01/28 08:25:33;;;;;;;;;;;;;;;1.09;69.44;102374.55;107285;1256;123739;-82
2023/01/28 08:27:59;;;;;;;;;;;;;;;1.14;69.79;102369.33;108237;1255;59186;-80
2023/01/28 08:30:26;;;;;;;;;;;;;;;1.19;69.51;102367.27;107489;1257;124402;-86
2023/01/28 08:32:57;;;;;;;;;;;;;;;1.26;69.78;102367.73;107152;1257;61171;-83
2023/01/28 08:35:24;;;;;;;;;;;;;;;1.30;69.62;102369.00;107088;1258;74802;-82
2023/01/28 08:37:54;;;;;;;;;;;;;;;1.31;69.17;102374.95;106949;1262;124402;-82
2023/01/28 08:40:22;;;;;;;;;;;;;;;1.31;69.08;102378.70;107165;1256;71397;-92
2023/01/28 08:42:49;;;;;;;;;;;;;;;1.30;69.22;102379.33;107407;1257;124083;-81
2023/01/28 08:45:15;;;;;;;;;;;;;;;1.30;69.21;102383.32;107658;1257;59648;-83
2023/01/28 08:47:51;;;;;;;;;;;;;;;1.35;69.43;102388.05;107373;1256;74136;-80
2023/01/28 08:50:22;;;;;;;;;;;;;;;1.44;69.41;102390.41;107530;1257;125067;-82
2023/01/28 08:53:21;;;;;;;;;;;;;;;1.53;69.55;102386.84;107518;1262;72620;-81
2023/01/28 08:55:47;;;;;;;;;;;;;;;1.63;69.32;102389.10;107796;1257;125467;-81
2023/01/28 08:58:14;;;;;;;;;;;;;;;1.68;69.03;102389.73;107529;1257;61256;-81
2023/01/28 09:00:41;;;;;;;;;;;;;;;1.69;68.93;102390.85;107410;1259;126282;-82
2023/01/28 09:03:07;;;;;;;;;;;;;;;1.70;68.91;102391.64;107394;1256;61161;-81
2023/01/28 09:05:55;;;;;;;;;;;;;;;;;;;;;
2023/01/28 09:08:22;;;;;;;;;;;;;;;1.85;68.92;102393.06;107367;1257;124593;-81
2023/01/28 09:11:23;;;;;;;;;;;;;;;1.89;68.85;102393.93;107410;1262;61639;-81
2023/01/28 09:13:56;;;;;;;;;;;;;;;1.92;68.72;102389.60;107272;1261;124708;-80
2023/01/28 09:16:40;;;;;;;;;;;;;;;2.00;68.74;102391.27;107427;1254;66074;-89
2023/01/28 09:19:14;;;;;;;;;;;;;;;2.06;68.66;102391.95;106834;1254;123118;-82
2023/01/28 09:21:41;;;;;;;;;;;;;;;2.12;68.48;102390.89;107076;1257;61255;-85
2023/01/28 09:24:11;;;;;;;;;;;;;;;2.15;68.28;102389.77;107403;1259;61115;-81
2023/01/28 09:26:43;;;;;;;;;;;;;;;2.18;68.28;102390.50;107447;1256;74771;-81
2023/01/28 09:29:26;;;;;;;;;;;;;;;2.18;68.29;102387.10;107757;1259;66398;-81
2023/01/28 09:31:52;;;;;;;;;;;;;;;2.24;68.26;102388.79;107435;1257;124257;-81
2023/01/28 09:34:24;;;;;;;;;;;;;;;2.36;68.25;102394.45;107585;1258;59823;-81
2023/01/28 09:36:51;;;;;;;;;;;;;;;2.45;67.90;102399.70;107924;1257;124064;-81
2023/01/28 09:39:30;;;;;;;;;;;;;;;2.47;67.93;102395.27;107345;1262;73090;-88
2023/01/28 09:41:57;;;;;;;;;;;;;;;2.54;67.88;102398.79;107187;1260;66301;-86
2023/01/28 09:44:43;;;;;;;;;;;;;;;2.63;67.82;102397.79;106941;1255;123750;-93
2023/01/28 09:47:21;;;;;;;;;;;;;;;2.72;67.69;102398.73;106980;1259;251063;-88
2023/01/28 09:49:49;;;;;;;;;;;;;;;2.82;67.69;102397.94;106921;1260;124319;-83
2023/01/28 09:52:18;;;;;;;;;;;;;;;2.91;67.62;102394.86;107211;1257;74799;-90
2023/01/28 09:54:50;;;;;;;;;;;;;;;3.02;67.57;102391.42;107160;1257;123914;-86
2023/01/28 10:01:41;;;;;;;;;;;;;;;3.11;66.80;102390.13;107277;1255;123794;-86
2023/01/28 10:04:43;;;;;;;;;;;;;;;3.08;66.25;102378.25;106879;1263;59918;-88
2023/01/28 10:07:18;;;;;;;;;;;;;;;3.07;66.09;102378.17;106750;1265;124299;-83
2023/01/28 10:10:01;;;;;;;;;;;;;;;3.12;66.26;102378.22;106980;1266;67797;-81
2023/01/28 10:12:44;;;;;;;;;;;;;;;3.18;66.20;102377.16;106931;1268;124463;-80
2023/01/28 10:18:55;;;;;;;;;;;;;;;3.26;65.85;102364.98;106527;1267;122922;-90
2023/01/28 10:21:26;;;;;;;;;;;;;;;3.29;65.72;102365.36;106778;1266;74490;-84
2023/01/28 10:23:57;;;;;;;;;;;;;;;3.30;65.72;102367.75;106586;1265;67598;-81
2023/01/28 10:26:31;;;;;;;;;;;;;;;3.31;65.70;102365.17;107342;1269;124515;-88
2023/01/28 10:29:38;;;;;;;;;;;;;;;3.30;65.65;102355.43;106785;1263;61592;-86
2023/01/28 10:32:38;;;;;;;;;;;;;;;3.19;65.14;102359.49;106652;1264;124620;-87
2023/01/28 10:35:06;;;;;;;;;;;;;;;3.15;65.19;102357.46;106639;1262;73951;-83
2023/01/28 10:37:33;;;;;;;;;;;;;;;3.16;65.37;102351.80;106883;1263;126473;-86
2023/01/28 10:40:13;;;;;;;;;;;;;;;3.22;65.96;102352.15;106904;1263;72922;-85
2023/01/28 10:42:39;;;;;;;;;;;;;;;3.28;65.64;102351.57;107373;1257;124033;-80
2023/01/28 10:45:09;;;;;;;;;;;;;;;3.30;65.44;102340.27;107350;1261;61268;-80
2023/01/28 10:47:43;;;;;;;;;;;;;;;3.34;65.41;102341.27;107491;1260;75261;-85
2023/01/28 10:50:21;;;;;;;;;;;;;;;3.35;65.28;102339.41;107173;1260;124961;-84
2023/01/28 10:53:09;;;;;;;;;;;;;;;3.35;65.38;102341.02;107246;1255;71396;-85
2023/01/28 10:55:53;;;;;;;;;;;;;;;3.34;65.30;102333.27;107003;1257;123822;-85
2023/01/28 10:58:20;;;;;;;;;;;;;;;3.32;65.08;102333.36;107281;1257;60613;-85
2023/01/28 11:00:52;;;;;;;;;;;;;;;3.32;65.14;102330.55;107045;1259;124049;-84
2023/01/28 11:03:23;;;;;;;;;;;;;;;3.31;65.13;102332.04;107143;1260;65609;-85
2023/01/28 11:05:55;;;;;;;;;;;;;;;3.25;64.84;102332.98;107049;1261;71527;-85
2023/01/28 11:08:22;;;;;;;;;;;;;;;3.18;64.88;102332.75;107191;1254;123989;-87
2023/01/28 11:11:02;;;;;;;;;;;;;;;3.16;65.11;102328.61;107055;1257;62110;-83
2023/01/28 11:13:30;;;;;;;;;;;;;;;3.19;65.15;102329.67;107195;1254;124338;-84
2023/01/28 11:15:59;;;;;;;;;;;;;;;3.23;65.15;102328.80;107520;1257;65649;-80
2023/01/28 11:18:29;;;;;;;;;;;;;;;3.23;64.92;102326.86;108475;1256;124437;-84
2023/01/28 11:21:00;;;;;;;;;;;;;;;3.21;64.82;102327.75;107016;1255;61362;-86
2023/01/28 11:23:30;;;;;;;;;;;;;;;3.19;64.70;102324.32;107444;1254;59370;-86
2023/01/28 11:26:17;;;;;;;;;;;;;;;3.16;64.49;102317.63;107307;1256;123949;-80
2023/01/28 11:28:43;;;;;;;;;;;;;;;3.13;64.46;102316.55;107281;1257;67071;-79
2023/01/28 11:31:10;;;;;;;;;;;;;;;3.09;64.40;102316.92;107550;1260;123892;-79
2023/01/28 11:33:38;;;;;;;;;;;;;;;3.05;64.09;102321.10;107612;1263;61149;-79
2023/01/28 11:36:04;;;;;;;;;;;;;;;2.97;64.09;102323.27;108177;1257;61131;-81
2023/01/28 11:38:30;;;;;;;;;;;;;;;2.91;64.18;102318.98;107917;1254;124369;-85
2023/01/28 11:40:57;;;;;;;;;;;;;;;2.90;64.03;102315.11;108225;1254;61230;-85
2023/01/28 11:43:27;;;;;;;;;;;;;;;2.89;64.04;102310.82;108115;1257;123776;-84
2023/01/28 11:46:06;;;;;;;;;;;;;;;2.88;64.06;102309.86;107365;1257;61037;-86
2023/01/28 11:48:38;;;;;;;;;;;;;;;2.86;63.98;102306.61;108050;1254;125031;-84
2023/01/28 11:51:16;;;;;;;;;;;;;;;2.88;64.18;102301.25;107968;1257;73978;-81
2023/01/28 11:54:03;;;;;;;;;;;;;;;2.92;64.15;102293.90;107421;1255;66910;-81
2023/01/28 11:56:48;;;;;;;;;;;;;;;2.91;64.10;102292.32;107336;1256;123804;-79
2023/01/28 11:59:15;;;;;;;;;;;;;;;2.91;64.13;102295.08;107323;1255;61362;-81
2023/01/28 12:01:46;;;;;;;;;;;;;;;2.92;63.90;102297.73;107649;1258;123986;-79
2023/01/28 12:04:22;;;;;;;;;;;;;;;2.92;63.80;102291.81;108875;1257;74676;-79
2023/01/28 12:07:11;;;;;;;;;;;;;;;2.92;63.92;102289.95;108792;1257;124886;-79
2023/01/28 12:09:44;;;;;;;;;;;;;;;2.92;63.84;102290.95;108929;1260;71710;-80
2023/01/28 12:12:16;;;;;;;;;;;;;;;2.91;63.86;102290.04;109107;1254;59037;-80
2023/01/28 12:15:09;;;;;;;;;;;;;;;2.93;63.96;102295.33;107217;1258;123840;-80
2023/01/28 12:17:38;;;;;;;;;;;;;;;2.93;63.94;102287.20;107416;1256;74874;-80
2023/01/28 12:20:25;;;;;;;;;;;;;;;2.91;63.76;102279.94;108722;1259;124293;-80
2023/01/28 12:22:52;;;;;;;;;;;;;;;2.88;63.71;102273.49;107525;1257;71529;-80
2023/01/28 12:25:37;;;;;;;;;;;;;;;2.89;64.12;102270.44;107597;1261;123732;-80
2023/01/28 12:28:08;;;;;;;;;;;;;;;2.94;64.17;102272.02;107634;1257;62096;-80
2023/01/28 12:30:39;;;;;;;;;;;;;;;2.96;64.24;102268.55;107198;1261;123949;-80
2023/01/28 12:33:24;;;;;;;;;;;;;;;2.95;63.99;102261.87;108942;1254;67113;-80
2023/01/28 12:35:52;;;;;;;;;;;;;;;2.90;63.94;102260.44;109026;1254;70350;-80
2023/01/28 12:38:34;;;;;;;;;;;;;;;2.87;63.97;102259.17;107183;1255;123865;-85
2023/01/28 12:41:11;;;;;;;;;;;;;;;2.83;64.06;102255.70;107585;1258;61365;-85
2023/01/28 12:43:41;;;;;;;;;;;;;;;2.81;64.13;102251.71;107378;1260;123935;-85
2023/01/28 12:46:18;;;;;;;;;;;;;;;2.78;64.07;102259.77;107485;1254;66250;-86
2023/01/28 12:49:13;;;;;;;;;;;;;;;2.71;63.83;102261.85;107169;1257;124529;-85
2023/01/28 12:51:59;;;;;;;;;;;;;;;2.64;64.14;102258.16;106722;1263;61472;-84
2023/01/28 12:54:40;;;;;;;;;;;;;;;2.58;63.97;102247.82;106810;1266;125051;-84
2023/01/28 12:57:18;;;;;;;;;;;;;;;2.51;64.15;102244.31;106795;1267;74817;-85
2023/01/28 12:59:57;;;;;;;;;;;;;;;2.46;64.31;102243.55;106849;1264;67638;-86
2023/01/28 13:02:45;;;;;;;;;;;;;;;2.46;64.46;102237.27;106687;1267;124760;-85
2023/01/28 13:05:18;;;;;;;;;;;;;;;2.46;64.51;102232.96;106981;1260;61372;-86
2023/01/28 13:07:49;;;;;;;;;;;;;;;2.45;64.15;102233.39;106702;1261;123720;-85
2023/01/28 13:10:29;;;;;;;;;;;;;;;2.43;64.38;102227.73;106950;1267;75090;-81
2023/01/28 13:13:04;;;;;;;;;;;;;;;2.45;64.51;102232.20;106795;1261;124118;-80
2023/01/28 13:15:30;;;;;;;;;;;;;;;2.43;64.48;102220.94;107011;1261;61247;-81
2023/01/28 13:18:00;;;;;;;;;;;;;;;2.46;64.53;102214.60;106874;1267;59436;-81
2023/01/28 13:20:34;;;;;;;;;;;;;;;2.47;64.52;102207.44;107095;1263;124156;-80
2023/01/28 13:23:01;;;;;;;;;;;;;;;2.49;64.46;102207.91;107195;1265;74573;-83
2023/01/28 13:25:27;;;;;;;;;;;;;;;2.47;64.49;102202.06;106605;1264;123751;-82
2023/01/28 13:27:56;;;;;;;;;;;;;;;2.45;64.47;102199.13;106829;1254;59602;-80